sensor_id;sensor_type;location;lat;lon;timestamp;pressure;altitude;pressure_sealevel;temperature
19061;BMP280;9663;48.996;8.334;2023-05-01T00:00:12;100210.31;;;17.14
19061;BMP280;9663;48.996;8.334;2023-05-01T00:02:38;100198.53;;;17.09
19061;BMP280;9663;48.996;8.334;2023-05-01T00:05:05;100208.81;;;17.08
19061;BMP280;9663;48.996;8.334;2023-05-01T00:07:32;100197.97;;;17.00
19061;BMP280;9663;48.996;8.334;2023-05-01T00:09:58;100203.25;;;16.95
19061;BMP280;9663;48.996;8.334;2023-05-01T00:12:24;100200.81;;;16.91
19061;BMP280;9663;48.996;8.334;2023-05-01T00:14:52;100196.72;;;16.85
19061;BMP280;9663;48.996;8.334;2023-05-01T00:17:18;100188.31;;;16.80
19061;BMP280;9663;48.996;8.334;2023-05-01T00:19:44;100193.59;;;16.76
19061;BMP280;9663;48.996;8.334;2023-05-01T00:22:10;100181.81;;;16.70
19061;BMP280;9663;48.996;8.334;2023-05-01T00:24:35;100183.63;;;16.67
19061;BMP280;9663;48.996;8.334;2023-05-01T00:27:01;100187.91;;;16.67
19061;BMP280;9663;48.996;8.334;2023-05-01T00:29:28;100184.72;;;16.59
19061;BMP280;9663;48.996;8.334;2023-05-01T00:31:54;100184.72;;;16.59
19061;BMP280;9663;48.996;8.334;2023-05-01T00:34:20;100174.72;;;16.51
19061;BMP280;9663;48.996;8.334;2023-05-01T00:36:46;100176.53;;;16.48
19061;BMP280;9663;48.996;8.334;2023-05-01T00:39:11;100176.66;;;16.43
19061;BMP280;9663;48.996;8.334;2023-05-01T00:41:37;100177.69;;;16.38
19061;BMP280;9663;48.996;8.334;2023-05-01T00:44:03;100172.63;;;16.36
19061;BMP280;9663;48.996;8.334;2023-05-01T00:46:30;100172.75;;;16.32
19061;BMP280;9663;48.996;8.334;2023-05-01T00:48:57;100170.94;;;16.35
19061;BMP280;9663;48.996;8.334;2023-05-01T00:51:25;100164.97;;;16.35
19061;BMP280;9663;48.996;8.334;2023-05-01T00:53:55;100156.34;;;16.37
19061;BMP280;9663;48.996;8.334;2023-05-01T00:56:21;100164.78;;;16.41
19061;BMP280;9663;48.996;8.334;2023-05-01T00:58:49;100161.31;;;16.43
19061;BMP280;9663;48.996;8.334;2023-05-01T01:01:27;100156.91;;;16.48
19061;BMP280;9663;48.996;8.334;2023-05-01T01:03:53;100152.56;;;16.50
19061;BMP280;9663;48.996;8.334;2023-05-01T01:12:02;100139.50;;;16.59
19061;BMP280;9663;48.996;8.334;2023-05-01T01:17:50;100129.03;;;16.67
19061;BMP280;9663;48.996;8.334;2023-05-01T01:26:30;100128.63;;;16.78
19061;BMP280;9663;48.996;8.334;2023-05-01T01:34:33;100119.72;;;16.90
19061;BMP280;9663;48.996;8.334;2023-05-01T01:37:03;100117.91;;;16.93
19061;BMP280;9663;48.996;8.334;2023-05-01T01:40:01;100112.91;;;16.90
19061;BMP280;9663;48.996;8.334;2023-05-01T01:42:44;100117.22;;;16.88
19061;BMP280;9663;48.996;8.334;2023-05-01T01:45:21;100118.03;;;16.90
19061;BMP280;9663;48.996;8.334;2023-05-01T01:47:51;100107.69;;;16.92
19061;BMP280;9663;48.996;8.334;2023-05-01T01:50:21;100112.72;;;16.95
19061;BMP280;9663;48.996;8.334;2023-05-01T01:52:52;100124.75;;;16.93
19061;BMP280;9663;48.996;8.334;2023-05-01T01:55:22;100123.03;;;16.93
19061;BMP280;9663;48.996;8.334;2023-05-01T01:57:51;100114.47;;;16.94
19061;BMP280;9663;48.996;8.334;2023-05-01T02:00:18;100120.28;;;16.99
19061;BMP280;9663;48.996;8.334;2023-05-01T02:02:46;100114.38;;;16.97
19061;BMP280;9663;48.996;8.334;2023-05-01T02:05:16;100114.28;;;17.00
19061;BMP280;9663;48.996;8.334;2023-05-01T02:07:47;100104.78;;;17.04
19061;BMP280;9663;48.996;8.334;2023-05-01T02:10:15;100107.22;;;17.07
19061;BMP280;9663;48.996;8.334;2023-05-01T02:12:45;100107.97;;;17.10
19061;BMP280;9663;48.996;8.334;2023-05-01T02:15:15;100103.63;;;17.12
19061;BMP280;9663;48.996;8.334;2023-05-01T02:17:43;100099.34;;;17.12
19061;BMP280;9663;48.996;8.334;2023-05-01T02:20:11;100101.81;;;17.15
19061;BMP280;9663;48.996;8.334;2023-05-01T02:22:40;100104.31;;;17.17
19061;BMP280;9663;48.996;8.334;2023-05-01T02:25:12;100096.72;;;17.14
19061;BMP280;9663;48.996;8.334;2023-05-01T02:28:02;100098.56;;;17.10
19061;BMP280;9663;48.996;8.334;2023-05-01T02:30:33;100106.19;;;17.12
19061;BMP280;9663;48.996;8.334;2023-05-01T02:32:59;100095.22;;;17.09
19061;BMP280;9663;48.996;8.334;2023-05-01T02:35:24;100091.75;;;17.09
19061;BMP280;9663;48.996;8.334;2023-05-01T02:37:50;100090.09;;;17.09
19061;BMP280;9663;48.996;8.334;2023-05-01T02:40:17;100085.94;;;17.05
19061;BMP280;9663;48.996;8.334;2023-05-01T02:42:44;100093.63;;;17.05
19061;BMP280;9663;48.996;8.334;2023-05-01T02:45:19;100080.06;;;17.01
19061;BMP280;9663;48.996;8.334;2023-05-01T02:47:50;100080.13;;;17.00
19061;BMP280;9663;48.996;8.334;2023-05-01T02:50:18;100078.56;;;16.96
19061;BMP280;9663;48.996;8.334;2023-05-01T02:52:45;100071.78;;;16.93
19061;BMP280;9663;48.996;8.334;2023-05-01T02:55:11;100077.81;;;16.92
19061;BMP280;9663;48.996;8.334;2023-05-01T02:57:37;100077.97;;;16.88
19061;BMP280;9663;48.996;8.334;2023-05-01T03:00:04;100067.13;;;16.80
19061;BMP280;9663;48.996;8.334;2023-05-01T03:02:33;100073.97;;;16.79
19061;BMP280;9663;48.996;8.334;2023-05-01T03:04:59;100069.78;;;16.77
19061;BMP280;9663;48.996;8.334;2023-05-01T03:07:25;100066.38;;;16.76
19061;BMP280;9663;48.996;8.334;2023-05-01T03:09:50;100053.75;;;16.70
19061;BMP280;9663;48.996;8.334;2023-05-01T03:12:16;100059.78;;;16.69
19061;BMP280;9663;48.996;8.334;2023-05-01T03:14:41;100061.53;;;16.69
19061;BMP280;9663;48.996;8.334;2023-05-01T03:17:07;100070.72;;;16.74
19061;BMP280;9663;48.996;8.334;2023-05-01T03:19:33;100074.09;;;16.75
19061;BMP280;9663;48.996;8.334;2023-05-01T03:21:58;100075.84;;;16.74
19061;BMP280;9663;48.996;8.334;2023-05-01T03:24:25;100068.94;;;16.76
19061;BMP280;9663;48.996;8.334;2023-05-01T03:26:50;100064.66;;;16.77
19061;BMP280;9663;48.996;8.334;2023-05-01T03:29:16;100064.56;;;16.80
19061;BMP280;9663;48.996;8.334;2023-05-01T03:31:42;100064.56;;;16.80
19061;BMP280;9663;48.996;8.334;2023-05-01T03:34:07;100062.78;;;16.82
19061;BMP280;9663;48.996;8.334;2023-05-01T03:36:33;100062.72;;;16.83
19061;BMP280;9663;48.996;8.334;2023-05-01T03:38:58;100059.34;;;16.83
19061;BMP280;9663;48.996;8.334;2023-05-01T03:41:24;100052.53;;;16.82
19061;BMP280;9663;48.996;8.334;2023-05-01T03:43:50;100047.47;;;16.80
19061;BMP280;9663;48.996;8.334;2023-05-01T03:46:16;100051.69;;;16.81
19061;BMP280;9663;48.996;8.334;2023-05-01T03:48:42;100050.91;;;16.79
19061;BMP280;9663;48.996;8.334;2023-05-01T03:51:08;100053.50;;;16.79
19061;BMP280;9663;48.996;8.334;2023-05-01T03:53:33;100045.94;;;16.75
19061;BMP280;9663;48.996;8.334;2023-05-01T03:56:01;100049.34;;;16.75
19061;BMP280;9663;48.996;8.334;2023-05-01T03:58:28;100047.66;;;16.74
19061;BMP280;9663;48.996;8.334;2023-05-01T04:00:54;100035.84;;;16.70
19061;BMP280;9663;48.996;8.334;2023-05-01T04:03:21;100041.88;;;16.69
19061;BMP280;9663;48.996;8.334;2023-05-01T04:05:47;100047.84;;;16.68
19061;BMP280;9663;48.996;8.334;2023-05-01T04:08:12;100035.22;;;16.64
19061;BMP280;9663;48.996;8.334;2023-05-01T04:10:38;100044.59;;;16.64
19061;BMP280;9663;48.996;8.334;2023-05-01T04:13:04;100048.06;;;16.63
19061;BMP280;9663;48.996;8.334;2023-05-01T04:15:31;100038.66;;;16.63
19061;BMP280;9663;48.996;8.334;2023-05-01T04:17:56;100044.66;;;16.62
19061;BMP280;9663;48.996;8.334;2023-05-01T04:20:22;100047.16;;;16.64
19061;BMP280;9663;48.996;8.334;2023-05-01T04:22:48;100043.78;;;16.63
19061;BMP280;9663;48.996;8.334;2023-05-01T04:25:14;100039.44;;;16.65
19061;BMP280;9663;48.996;8.334;2023-05-01T04:27:40;100035.09;;;16.67
19061;BMP280;9663;48.996;8.334;2023-05-01T04:30:06;100042.81;;;16.66
19061;BMP280;9663;48.996;8.334;2023-05-01T04:32:32;100031.75;;;16.65
19061;BMP280;9663;48.996;8.334;2023-05-01T04:34:59;100042.81;;;16.66
19061;BMP280;9663;48.996;8.334;2023-05-01T04:37:25;100043.59;;;16.69
19061;BMP280;9663;48.996;8.334;2023-05-01T04:39:51;100041.91;;;16.68
19061;BMP280;9663;48.996;8.334;2023-05-01T04:42:16;100040.97;;;16.70
19061;BMP280;9663;48.996;8.334;2023-05-01T04:44:45;100049.28;;;16.77
19061;BMP280;9663;48.996;8.334;2023-05-01T04:47:12;100053.50;;;16.79
19061;BMP280;9663;48.996;8.334;2023-05-01T04:49:38;100050.81;;;16.82
19061;BMP280;9663;48.996;8.334;2023-05-01T04:52:04;100045.59;;;16.85
19061;BMP280;9663;48.996;8.334;2023-05-01T04:54:29;100047.28;;;16.86
19061;BMP280;9663;48.996;8.334;2023-05-01T04:56:55;100054.00;;;16.90
19061;BMP280;9663;48.996;8.334;2023-05-01T04:59:21;100054.72;;;16.94
19061;BMP280;9663;48.996;8.334;2023-05-01T05:01:46;100057.09;;;16.98
19061;BMP280;9663;48.996;8.334;2023-05-01T05:04:12;100057.84;;;17.02
19061;BMP280;9663;48.996;8.334;2023-05-01T05:06:38;100044.94;;;17.05
19061;BMP280;9663;48.996;8.334;2023-05-01T05:09:04;100046.28;;;17.14
19061;BMP280;9663;48.996;8.334;2023-05-01T05:11:29;100043.63;;;17.19
19061;BMP280;9663;48.996;8.334;2023-05-01T05:13:55;100050.25;;;17.24
19061;BMP280;9663;48.996;8.334;2023-05-01T05:16:21;100059.31;;;17.34
19061;BMP280;9663;48.996;8.334;2023-05-01T05:18:46;100047.16;;;17.39
19061;BMP280;9663;48.996;8.334;2023-05-01T05:21:12;100045.94;;;17.49
19061;BMP280;9663;48.996;8.334;2023-05-01T05:23:38;100057.66;;;17.57
19061;BMP280;9663;48.996;8.334;2023-05-01T05:26:03;100047.03;;;17.66
19061;BMP280;9663;48.996;8.334;2023-05-01T05:28:30;100050.84;;;17.79
19061;BMP280;9663;48.996;8.334;2023-05-01T05:30:56;100047.97;;;17.87
19061;BMP280;9663;48.996;8.334;2023-05-01T05:33:22;100045.88;;;17.97
19061;BMP280;9663;48.996;8.334;2023-05-01T05:35:52;100054.06;;;18.07
19061;BMP280;9663;48.996;8.334;2023-05-01T05:38:18;100055.31;;;18.20
19061;BMP280;9663;48.996;8.334;2023-05-01T05:40:43;100056.69;;;18.28
19061;BMP280;9663;48.996;8.334;2023-05-01T05:43:09;100053.78;;;18.37
19061;BMP280;9663;48.996;8.334;2023-05-01T05:45:36;100050.91;;;18.44
19061;BMP280;9663;48.996;8.334;2023-05-01T05:48:02;100054.97;;;18.50
19061;BMP280;9663;48.996;8.334;2023-05-01T05:50:28;100054.84;;;18.53
19061;BMP280;9663;48.996;8.334;2023-05-01T05:52:56;100059.69;;;18.60
19061;BMP280;9663;48.996;8.334;2023-05-01T05:55:22;100054.38;;;18.65
19061;BMP280;9663;48.996;8.334;2023-05-01T05:57:48;100054.31;;;18.66
19061;BMP280;9663;48.996;8.334;2023-05-01T06:00:14;100051.75;;;18.66
19061;BMP280;9663;48.996;8.334;2023-05-01T06:02:41;100052.50;;;18.68
19061;BMP280;9663;48.996;8.334;2023-05-01T06:05:07;100047.38;;;18.68
19061;BMP280;9663;48.996;8.334;2023-05-01T06:07:35;100058.56;;;18.67
19061;BMP280;9663;48.996;8.334;2023-05-01T06:10:02;100061.03;;;18.69
19061;BMP280;9663;48.996;8.334;2023-05-01T06:12:31;100060.09;;;18.71
19061;BMP280;9663;48.996;8.334;2023-05-01T06:14:57;100055.72;;;18.73
19061;BMP280;9663;48.996;8.334;2023-05-01T06:17:24;100060.81;;;18.75
19061;BMP280;9663;48.996;8.334;2023-05-01T06:19:50;100070.84;;;18.81
19061;BMP280;9663;48.996;8.334;2023-05-01T06:22:19;100069.81;;;18.84
19061;BMP280;9663;48.996;8.334;2023-05-01T06:24:45;100058.59;;;18.87
19061;BMP280;9663;48.996;8.334;2023-05-01T06:27:11;100058.31;;;18.93
19061;BMP280;9663;48.996;8.334;2023-05-01T06:29:37;100065.16;;;18.94
19061;BMP280;9663;48.996;8.334;2023-05-01T06:32:03;100074.44;;;18.96
19061;BMP280;9663;48.996;8.334;2023-05-01T06:34:29;100069.47;;;18.93
19061;BMP280;9663;48.996;8.334;2023-05-01T06:36:55;100065.22;;;18.92
19061;BMP280;9663;48.996;8.334;2023-05-01T06:39:21;100064.22;;;18.95
19061;BMP280;9663;48.996;8.334;2023-05-01T06:41:47;100070.06;;;19.00
19061;BMP280;9663;48.996;8.334;2023-05-01T06:44:13;100070.59;;;19.08
19061;BMP280;9663;48.996;8.334;2023-05-01T06:46:39;100069.50;;;19.13
19061;BMP280;9663;48.996;8.334;2023-05-01T06:49:05;100078.63;;;19.20
19061;BMP280;9663;48.996;8.334;2023-05-01T06:51:31;100077.34;;;19.30
19061;BMP280;9663;48.996;8.334;2023-05-01T06:53:57;100071.03;;;19.37
19061;BMP280;9663;48.996;8.334;2023-05-01T06:56:23;100077.41;;;19.48
19061;BMP280;9663;48.996;8.334;2023-05-01T06:58:48;100073.88;;;19.51
19061;BMP280;9663;48.996;8.334;2023-05-01T07:01:15;100074.53;;;19.56
19061;BMP280;9663;48.996;8.334;2023-05-01T07:03:41;100081.00;;;19.64
19061;BMP280;9663;48.996;8.334;2023-05-01T07:06:06;100091.06;;;19.68
19061;BMP280;9663;48.996;8.334;2023-05-01T07:08:32;100085.88;;;19.70
19061;BMP280;9663;48.996;8.334;2023-05-01T07:10:58;100081.34;;;19.75
19061;BMP280;9663;48.996;8.334;2023-05-01T07:13:25;100080.22;;;19.82
19061;BMP280;9663;48.996;8.334;2023-05-01T07:15:51;100075.72;;;19.87
19061;BMP280;9663;48.996;8.334;2023-05-01T07:18:18;100079.50;;;19.98
19061;BMP280;9663;48.996;8.334;2023-05-01T07:20:44;100080.03;;;20.05
19061;BMP280;9663;48.996;8.334;2023-05-01T07:23:10;100077.19;;;20.11
19061;BMP280;9663;48.996;8.334;2023-05-01T07:25:36;100083.66;;;20.19
19061;BMP280;9663;48.996;8.334;2023-05-01T07:28:02;100074.59;;;20.29
19061;BMP280;9663;48.996;8.334;2023-05-01T07:30:29;100074.25;;;20.36
19061;BMP280;9663;48.996;8.334;2023-05-01T07:32:57;100070.28;;;20.48
19061;BMP280;9663;48.996;8.334;2023-05-01T07:35:23;100073.25;;;20.57
19061;BMP280;9663;48.996;8.334;2023-05-01T07:37:50;100070.28;;;20.66
19061;BMP280;9663;48.996;8.334;2023-05-01T07:40:17;100073.31;;;20.74
19061;BMP280;9663;48.996;8.334;2023-05-01T07:42:43;100073.56;;;20.86
19061;BMP280;9663;48.996;8.334;2023-05-01T07:45:09;100069.56;;;20.98
19061;BMP280;9663;48.996;8.334;2023-05-01T07:47:35;100062.22;;;21.07
19061;BMP280;9663;48.996;8.334;2023-05-01T07:50:01;100064.91;;;21.21
19061;BMP280;9663;48.996;8.334;2023-05-01T07:52:29;100066.13;;;21.31
19061;BMP280;9663;48.996;8.334;2023-05-01T07:54:55;100065.69;;;21.40
19061;BMP280;9663;48.996;8.334;2023-05-01T07:57:20;100064.41;;;21.48
19061;BMP280;9663;48.996;8.334;2023-05-01T07:59:47;100055.34;;;21.56
19061;BMP280;9663;48.996;8.334;2023-05-01T08:02:17;100067.69;;;21.67
19061;BMP280;9663;48.996;8.334;2023-05-01T08:04:43;100062.66;;;21.65
19061;BMP280;9663;48.996;8.334;2023-05-01T08:07:10;100069.59;;;21.63
19061;BMP280;9663;48.996;8.334;2023-05-01T08:09:36;100079.09;;;21.63
19061;BMP280;9663;48.996;8.334;2023-05-01T08:12:01;100077.28;;;21.65
19061;BMP280;9663;48.996;8.334;2023-05-01T08:14:29;100077.88;;;21.70
19061;BMP280;9663;48.996;8.334;2023-05-01T08:16:55;100077.78;;;21.71
19061;BMP280;9663;48.996;8.334;2023-05-01T08:19:21;100078.47;;;21.75
19061;BMP280;9663;48.996;8.334;2023-05-01T08:21:47;100077.41;;;21.79
19061;BMP280;9663;48.996;8.334;2023-05-01T08:24:13;100074.84;;;21.79
19061;BMP280;9663;48.996;8.334;2023-05-01T08:26:39;100075.50;;;21.82
19061;BMP280;9663;48.996;8.334;2023-05-01T08:29:05;100082.38;;;21.82
19061;BMP280;9663;48.996;8.334;2023-05-01T08:31:30;100084.97;;;21.82
19061;BMP280;9663;48.996;8.334;2023-05-01T08:33:56;100082.66;;;21.77
19061;BMP280;9663;48.996;8.334;2023-05-01T08:36:22;100080.97;;;21.76
19061;BMP280;9663;48.996;8.334;2023-05-01T08:38:48;100078.31;;;21.78
19061;BMP280;9663;48.996;8.334;2023-05-01T08:41:21;100076.63;;;21.77
19061;BMP280;9663;48.996;8.334;2023-05-01T08:43:48;100083.31;;;21.81
19061;BMP280;9663;48.996;8.334;2023-05-01T08:48:59;100075.16;;;21.88
19061;BMP280;9663;48.996;8.334;2023-05-01T08:51:30;100072.63;;;22.03
19061;BMP280;9663;48.996;8.334;2023-05-01T08:54:00;100070.38;;;22.13
19061;BMP280;9663;48.996;8.334;2023-05-01T08:56:29;100073.09;;;22.27
19061;BMP280;9663;48.996;8.334;2023-05-01T08:58:59;100058.91;;;22.33
19061;BMP280;9663;48.996;8.334;2023-05-01T09:01:26;100064.59;;;22.40
19061;BMP280;9663;48.996;8.334;2023-05-01T09:03:54;100057.41;;;22.45
19061;BMP280;9663;48.996;8.334;2023-05-01T09:06:22;100059.84;;;22.48
19061;BMP280;9663;48.996;8.334;2023-05-01T09:08:47;100061.31;;;22.52
19061;BMP280;9663;48.996;8.334;2023-05-01T09:11:13;100072.22;;;22.57
19061;BMP280;9663;48.996;8.334;2023-05-01T09:13:39;100061.06;;;22.56
19061;BMP280;9663;48.996;8.334;2023-05-01T09:16:05;100073.81;;;22.59
19061;BMP280;9663;48.996;8.334;2023-05-01T09:18:33;100065.91;;;22.62
19061;BMP280;9663;48.996;8.334;2023-05-01T09:20:59;100067.63;;;22.62
19061;BMP280;9663;48.996;8.334;2023-05-01T09:23:25;100069.56;;;22.58
19061;BMP280;9663;48.996;8.334;2023-05-01T09:25:51;100069.84;;;22.54
19061;BMP280;9663;48.996;8.334;2023-05-01T09:28:16;100071.41;;;22.56
19061;BMP280;9663;48.996;8.334;2023-05-01T09:30:42;100072.66;;;22.65
19061;BMP280;9663;48.996;8.334;2023-05-01T09:33:11;100080.41;;;22.65
19061;BMP280;9663;48.996;8.334;2023-05-01T09:35:56;100081.75;;;22.56
19061;BMP280;9663;48.996;8.334;2023-05-01T09:38:26;100079.81;;;22.60
19061;BMP280;9663;48.996;8.334;2023-05-01T09:40:55;100079.50;;;22.66
19061;BMP280;9663;48.996;8.334;2023-05-01T09:43:29;100077.47;;;22.71
19061;BMP280;9663;48.996;8.334;2023-05-01T09:46:03;100080.28;;;22.81
19061;BMP280;9663;48.996;8.334;2023-05-01T09:48:32;100079.88;;;22.89
19061;BMP280;9663;48.996;8.334;2023-05-01T09:50:58;100075.03;;;22.98
19061;BMP280;9663;48.996;8.334;2023-05-01T09:53:38;100072.00;;;23.06
19061;BMP280;9663;48.996;8.334;2023-05-01T09:56:05;100074.09;;;23.15
19061;BMP280;9663;48.996;8.334;2023-05-01T09:58:31;100075.13;;;23.26
19061;BMP280;9663;48.996;8.334;2023-05-01T10:00:57;100066.94;;;23.47
19061;BMP280;9663;48.996;8.334;2023-05-01T10:03:23;100067.03;;;23.59
19061;BMP280;9663;48.996;8.334;2023-05-01T10:05:48;100072.28;;;23.58
19061;BMP280;9663;48.996;8.334;2023-05-01T10:08:14;100074.97;;;23.57
19061;BMP280;9663;48.996;8.334;2023-05-01T10:10:40;100064.44;;;23.59
19061;BMP280;9663;48.996;8.334;2023-05-01T10:13:16;100067.13;;;23.58
19061;BMP280;9663;48.996;8.334;2023-05-01T10:15:45;100071.47;;;23.58
19061;BMP280;9663;48.996;8.334;2023-05-01T10:18:12;100062.75;;;23.58
19061;BMP280;9663;48.996;8.334;2023-05-01T10:20:39;100066.97;;;23.61
19061;BMP280;9663;48.996;8.334;2023-05-01T10:23:05;100067.25;;;23.70
19061;BMP280;9663;48.996;8.334;2023-05-01T10:25:31;100064.03;;;23.95
19061;BMP280;9663;48.996;8.334;2023-05-01T10:27:58;100063.69;;;24.27
19061;BMP280;9663;48.996;8.334;2023-05-01T10:30:25;100060.97;;;24.56
19061;BMP280;9663;48.996;8.334;2023-05-01T10:32:51;100063.53;;;24.82
19061;BMP280;9663;48.996;8.334;2023-05-01T10:35:47;100048.13;;;24.93
19061;BMP280;9663;48.996;8.334;2023-05-01T10:38:32;100058.69;;;25.16
19061;BMP280;9663;48.996;8.334;2023-05-01T10:41:02;100046.66;;;25.28
19061;BMP280;9663;48.996;8.334;2023-05-01T10:43:30;100038.13;;;25.38
19061;BMP280;9663;48.996;8.334;2023-05-01T10:51:13;100035.84;;;25.58
19061;BMP280;9663;48.996;8.334;2023-05-01T10:53:41;100031.31;;;25.62
19061;BMP280;9663;48.996;8.334;2023-05-01T10:59:03;100033.91;;;25.62
19061;BMP280;9663;48.996;8.334;2023-05-01T11:01:37;100035.84;;;25.46
19061;BMP280;9663;48.996;8.334;2023-05-01T11:09:54;100040.06;;;24.97
19061;BMP280;9663;48.996;8.334;2023-05-01T11:15:10;100034.50;;;24.89
19061;BMP280;9663;48.996;8.334;2023-05-01T11:20:10;100031.69;;;25.19
19061;BMP280;9663;48.996;8.334;2023-05-01T11:22:38;100022.97;;;25.44
19061;BMP280;9663;48.996;8.334;2023-05-01T11:25:18;100027.56;;;25.66
19061;BMP280;9663;48.996;8.334;2023-05-01T11:27:54;100024.94;;;25.78
19061;BMP280;9663;48.996;8.334;2023-05-01T11:30:21;100024.72;;;25.81
19061;BMP280;9663;48.996;8.334;2023-05-01T11:32:49;100012.69;;;25.80
19061;BMP280;9663;48.996;8.334;2023-05-01T11:35:25;100017.78;;;25.69
19061;BMP280;9663;48.996;8.334;2023-05-01T11:37:51;100010.09;;;25.43
19061;BMP280;9663;48.996;8.334;2023-05-01T11:40:27;100017.88;;;25.18
19061;BMP280;9663;48.996;8.334;2023-05-01T11:43:02;100024.38;;;24.99
19061;BMP280;9663;48.996;8.334;2023-05-01T11:45:28;100019.34;;;24.84
19061;BMP280;9663;48.996;8.334;2023-05-01T11:47:54;100015.69;;;24.74
19061;BMP280;9663;48.996;8.334;2023-05-01T11:50:21;100015.16;;;24.69
19061;BMP280;9663;48.996;8.334;2023-05-01T11:52:49;100019.81;;;24.64
19061;BMP280;9663;48.996;8.334;2023-05-01T11:55:19;100009.53;;;24.62
19061;BMP280;9663;48.996;8.334;2023-05-01T11:57:52;100007.38;;;24.69
19061;BMP280;9663;48.996;8.334;2023-05-01T12:00:31;100007.06;;;24.73
19061;BMP280;9663;48.996;8.334;2023-05-01T12:03:11;100009.28;;;24.79
19061;BMP280;9663;48.996;8.334;2023-05-01T12:05:40;100000.91;;;24.88
19061;BMP280;9663;48.996;8.334;2023-05-01T12:08:20;99998.63;;;24.96
19061;BMP280;9663;48.996;8.334;2023-05-01T12:10:54;100004.06;;;25.05
19061;BMP280;9663;48.996;8.334;2023-05-01T12:13:20;99997.22;;;25.04
19061;BMP280;9663;48.996;8.334;2023-05-01T12:15:54;100006.50;;;24.94
19061;BMP280;9663;48.996;8.334;2023-05-01T12:18:20;99997.03;;;24.81
19061;BMP280;9663;48.996;8.334;2023-05-01T12:20:52;100002.81;;;24.72
19061;BMP280;9663;48.996;8.334;2023-05-01T12:23:31;100014.09;;;24.59
19061;BMP280;9663;48.996;8.334;2023-05-01T12:25:57;100012.84;;;24.52
19061;BMP280;9663;48.996;8.334;2023-05-01T12:28:23;100011.34;;;24.48
19061;BMP280;9663;48.996;8.334;2023-05-01T12:30:49;100018.22;;;24.49
19061;BMP280;9663;48.996;8.334;2023-05-01T12:33:19;100011.06;;;24.52
19061;BMP280;9663;48.996;8.334;2023-05-01T12:35:48;99998.53;;;24.59
19061;BMP280;9663;48.996;8.334;2023-05-01T12:38:21;100000.44;;;24.69
19061;BMP280;9663;48.996;8.334;2023-05-01T12:40:58;99991.72;;;24.70
19061;BMP280;9663;48.996;8.334;2023-05-01T12:43:36;99994.94;;;24.74
19061;BMP280;9663;48.996;8.334;2023-05-01T12:46:04;99998.28;;;24.76
19061;BMP280;9663;48.996;8.334;2023-05-01T12:48:30;99998.16;;;24.77
19061;BMP280;9663;48.996;8.334;2023-05-01T12:50:57;99994.53;;;24.80
19061;BMP280;9663;48.996;8.334;2023-05-01T12:53:26;100000.25;;;24.85
19061;BMP280;9663;48.996;8.334;2023-05-01T12:55:54;100004.59;;;24.84
19061;BMP280;9663;48.996;8.334;2023-05-01T12:58:21;99996.09;;;24.82
19061;BMP280;9663;48.996;8.334;2023-05-01T13:00:52;99995.38;;;24.80
19061;BMP280;9663;48.996;8.334;2023-05-01T13:03:29;100000.97;;;24.74
19061;BMP280;9663;48.996;8.334;2023-05-01T13:05:57;100000.13;;;24.74
19061;BMP280;9663;48.996;8.334;2023-05-01T13:08:31;100000.56;;;24.80
19061;BMP280;9663;48.996;8.334;2023-05-01T13:11:01;100000.38;;;24.95
19061;BMP280;9663;48.996;8.334;2023-05-01T13:13:34;99995.16;;;25.34
19061;BMP280;9663;48.996;8.334;2023-05-01T13:16:09;99989.97;;;26.07
19061;BMP280;9663;48.996;8.334;2023-05-01T13:18:51;99990.47;;;27.05
19061;BMP280;9663;48.996;8.334;2023-05-01T13:21:24;99989.44;;;28.05
19061;BMP280;9663;48.996;8.334;2023-05-01T13:23:57;99970.38;;;28.78
19061;BMP280;9663;48.996;8.334;2023-05-01T13:26:31;99973.19;;;29.26
19061;BMP280;9663;48.996;8.334;2023-05-01T13:28:59;99966.00;;;29.48
19061;BMP280;9663;48.996;8.334;2023-05-01T13:31:26;99961.38;;;29.61
19061;BMP280;9663;48.996;8.334;2023-05-01T13:33:54;99964.72;;;29.63
19061;BMP280;9663;48.996;8.334;2023-05-01T13:36:20;99968.44;;;29.70
19061;BMP280;9663;48.996;8.334;2023-05-01T13:38:50;99955.81;;;29.75
19061;BMP280;9663;48.996;8.334;2023-05-01T13:41:20;99952.63;;;29.71
19061;BMP280;9663;48.996;8.334;2023-05-01T13:43:48;99961.94;;;29.65
19061;BMP280;9663;48.996;8.334;2023-05-01T13:46:16;99957.53;;;29.56
19061;BMP280;9663;48.996;8.334;2023-05-01T13:48:43;99955.44;;;29.50
19061;BMP280;9663;48.996;8.334;2023-05-01T13:51:11;99961.06;;;29.45
19061;BMP280;9663;48.996;8.334;2023-05-01T13:53:41;99960.13;;;29.56
19061;BMP280;9663;48.996;8.334;2023-05-01T13:56:11;99956.53;;;29.77
19061;BMP280;9663;48.996;8.334;2023-05-01T13:58:40;99967.53;;;29.80
19061;BMP280;9663;48.996;8.334;2023-05-01T14:01:25;99953.78;;;29.78
19061;BMP280;9663;48.996;8.334;2023-05-01T14:03:54;99947.31;;;29.82
19061;BMP280;9663;48.996;8.334;2023-05-01T14:06:21;99950.25;;;29.59
19061;BMP280;9663;48.996;8.334;2023-05-01T14:08:50;99954.41;;;29.32
19061;BMP280;9663;48.996;8.334;2023-05-01T14:11:17;99951.34;;;29.07
19061;BMP280;9663;48.996;8.334;2023-05-01T14:13:46;99946.19;;;28.76
19061;BMP280;9663;48.996;8.334;2023-05-01T14:16:24;99937.88;;;28.50
19061;BMP280;9663;48.996;8.334;2023-05-01T14:18:54;99943.16;;;28.29
19061;BMP280;9663;48.996;8.334;2023-05-01T14:21:23;99957.34;;;28.04
19061;BMP280;9663;48.996;8.334;2023-05-01T14:23:53;99958.56;;;27.68
19061;BMP280;9663;48.996;8.334;2023-05-01T14:26:20;99960.91;;;27.27
19061;BMP280;9663;48.996;8.334;2023-05-01T14:28:46;99967.44;;;26.88
19061;BMP280;9663;48.996;8.334;2023-05-01T14:31:30;99969.16;;;26.42
19061;BMP280;9663;48.996;8.334;2023-05-01T14:33:59;99974.16;;;26.10
19061;BMP280;9663;48.996;8.334;2023-05-01T14:36:27;99989.31;;;25.80
19061;BMP280;9663;48.996;8.334;2023-05-01T14:38:56;99988.09;;;25.36
19061;BMP280;9663;48.996;8.334;2023-05-01T14:41:22;100000.16;;;24.86
19061;BMP280;9663;48.996;8.334;2023-05-01T14:43:50;100017.88;;;24.27
19061;BMP280;9663;48.996;8.334;2023-05-01T14:46:30;100023.94;;;23.58
19061;BMP280;9663;48.996;8.334;2023-05-01T14:48:58;100019.31;;;22.93
19061;BMP280;9663;48.996;8.334;2023-05-01T14:51:24;100002.81;;;22.35
19061;BMP280;9663;48.996;8.334;2023-05-01T14:53:50;99973.84;;;22.00
19061;BMP280;9663;48.996;8.334;2023-05-01T14:56:16;99969.22;;;21.74
19061;BMP280;9663;48.996;8.334;2023-05-01T14:58:42;99964.97;;;21.58